createdAt,value
2022-12-08T00:00:02.664Z,237.074
2022-12-08T00:05:03.029Z,346.452
2022-12-08T00:10:14.464Z,1775.859
2022-12-08T00:15:03.030Z,2367.112
2022-12-08T00:20:02.722Z,534.324
2022-12-08T00:25:02.969Z,210.119
2022-12-08T00:30:02.669Z,1577.846
2022-12-08T00:35:02.912Z,2242.109
2022-12-08T00:40:03.010Z,2246.486
2022-12-08T00:45:02.741Z,2224.707
2022-12-08T00:50:03.010Z,2099.064
2022-12-08T00:55:02.850Z,2492.03
2022-12-08T01:00:02.898Z,2411.67
2022-12-08T01:05:02.700Z,3651.477
2022-12-08T01:10:03.116Z,3795.2870000000003
2022-12-08T01:15:03.035Z,2331.078
2022-12-08T01:20:03.297Z,2343.732
2022-12-08T01:25:02.889Z,2336.996
2022-12-08T01:30:03.166Z,716.835
2022-12-08T01:35:02.762Z,2030.365
2022-12-08T01:40:03.018Z,2450.088
2022-12-08T01:45:02.884Z,2181.813
2022-12-08T01:50:03.339Z,2381.128
2022-12-08T01:55:02.949Z,2373.195
2022-12-08T02:00:03.351Z,2330.471
2022-12-08T02:05:02.754Z,2334.352
2022-12-08T02:10:03.039Z,2323.939
2022-12-08T02:15:05.220Z,2326.172
2022-12-08T02:20:02.995Z,2335.703
2022-12-08T02:25:02.886Z,2443.648
2022-12-08T02:30:03.195Z,2449.911
2022-12-08T02:35:02.852Z,2504.693
2022-12-08T02:40:03.266Z,1872.82
2022-12-08T02:45:02.807Z,2570.972
2022-12-08T02:50:03.159Z,2351.118
2022-12-08T02:55:02.983Z,2359.025
2022-12-08T03:00:03.262Z,2357.458
2022-12-08T03:05:02.802Z,2362.981
2022-12-08T03:10:03.213Z,2417.675
2022-12-08T03:15:02.868Z,2503.455
2022-12-08T03:20:03.186Z,2501.706
2022-12-08T03:25:02.947Z,2494.349
2022-12-08T03:30:03.309Z,2458.085
2022-12-08T03:35:02.869Z,1822.483
2022-12-08T03:40:03.338Z,2577.561
2022-12-08T03:45:02.831Z,2367.4120000000003
2022-12-08T03:50:03.267Z,2378.902
2022-12-08T03:55:02.994Z,2382.783
2022-12-08T04:00:03.311Z,2493.311
2022-12-08T04:05:02.836Z,2356.046
2022-12-08T04:10:03.270Z,361.242
2022-12-08T04:15:02.921Z,2415.371
2022-12-08T04:20:03.404Z,2328.331
2022-12-08T04:25:03.039Z,2340.902
2022-12-08T04:30:03.312Z,2473.321
2022-12-08T04:35:02.860Z,1889.301
2022-12-08T04:40:03.404Z,2452.704
2022-12-08T04:45:02.874Z,2322.151
2022-12-08T04:50:03.220Z,2422.04
2022-12-08T04:55:03.047Z,2478.789
2022-12-08T05:00:03.341Z,2467.806
2022-12-08T05:05:02.929Z,2457.736
2022-12-08T05:10:03.257Z,2361.4610000000002
2022-12-08T05:15:03.000Z,2366.17
2022-12-08T05:20:03.311Z,2370.51
2022-12-08T05:25:03.160Z,2463.6730000000002
2022-12-08T05:30:03.235Z,1984.375
2022-12-08T05:35:03.097Z,2412.707
2022-12-08T05:40:03.338Z,2411.024
2022-12-08T05:45:02.957Z,2468.716
2022-12-08T05:50:03.269Z,2467.226
2022-12-08T05:55:03.128Z,1376.737
2022-12-08T06:00:03.291Z,1473.92
2022-12-08T06:05:02.979Z,2411.745
2022-12-08T06:10:03.240Z,2407.867
2022-12-08T06:15:03.144Z,2494.129
2022-12-08T06:20:03.520Z,3191.718
2022-12-08T06:25:05.975Z,2495.73
2022-12-08T06:30:03.250Z,2656.81
2022-12-08T06:35:03.014Z,2940.536
2022-12-08T06:40:03.367Z,1798.155
2022-12-08T06:45:03.107Z,1663.067
2022-12-08T06:50:03.333Z,2809.533
2022-12-08T06:55:03.041Z,2290.427
2022-12-08T07:00:03.663Z,2299.252
2022-12-08T07:05:03.015Z,2249.709
2022-12-08T07:10:03.444Z,2421.216
2022-12-08T07:15:01.322Z,2621.338
2022-12-08T07:20:01.685Z,2655.909
2022-12-08T07:25:01.472Z,1938.457
2022-12-08T07:30:01.389Z,2412.755
2022-12-08T07:35:01.329Z,2164.51
2022-12-08T07:40:02.482Z,2149.724
2022-12-08T07:45:01.373Z,2182.734
2022-12-08T07:50:01.430Z,2202.299
2022-12-08T07:55:01.536Z,2214.431
2022-12-08T08:00:01.435Z,2221.471
2022-12-08T08:05:01.508Z,2353.5190000000002
2022-12-08T08:10:01.569Z,2341.898
2022-12-08T08:15:01.423Z,2409.213
2022-12-08T08:20:01.690Z,1806.8990000000001
2022-12-08T08:25:01.673Z,2503.819
2022-12-08T08:30:01.574Z,2229.351
2022-12-08T08:35:01.380Z,2250.944
2022-12-08T08:40:01.619Z,2259.4030000000002
2022-12-08T08:45:01.637Z,2264.676
2022-12-08T08:50:01.424Z,2316.714
2022-12-08T08:55:01.550Z,2396.995
2022-12-08T09:00:01.493Z,2414.726
2022-12-08T09:05:01.555Z,2404.481
2022-12-08T09:10:02.246Z,2446.347
2022-12-08T09:15:01.463Z,1865.126
2022-12-08T09:20:01.611Z,2501.766
2022-12-08T09:25:01.658Z,2345.118
2022-12-08T09:30:01.606Z,2361.686
2022-12-08T09:35:01.498Z,2345.684
2022-12-08T09:40:01.704Z,2478.305
2022-12-08T09:45:01.471Z,2485.541
2022-12-08T09:50:01.574Z,2508.1910000000003
2022-12-08T09:55:01.641Z,2437.994
2022-12-08T10:00:01.646Z,2410.236
2022-12-08T10:05:01.546Z,2528.734
2022-12-08T10:10:01.562Z,1905.068
2022-12-08T10:15:01.547Z,2479.302
2022-12-08T10:20:01.997Z,2363.947
2022-12-08T10:25:01.714Z,2439.236
2022-12-08T10:30:01.663Z,2495.812
2022-12-08T10:35:01.475Z,2492.491
2022-12-08T10:40:01.635Z,2481.044
2022-12-08T10:45:01.521Z,2401.977
2022-12-08T10:50:02.110Z,2409.684
2022-12-08T10:55:01.510Z,2424.329
2022-12-08T11:00:01.782Z,2322.18
2022-12-08T11:05:01.522Z,2261.112
2022-12-08T11:10:01.644Z,2533.103
2022-12-08T11:15:01.649Z,2586.034
2022-12-08T11:20:01.904Z,2593.293
2022-12-08T11:25:01.522Z,2613.627
2022-12-08T11:30:01.603Z,2716.993
2022-12-08T11:35:01.538Z,1645.135
2022-12-08T11:40:01.735Z,171.59
2022-12-08T11:45:01.820Z,170.796
2022-12-08T11:50:01.726Z,172.056
2022-12-08T11:55:01.568Z,196.222
2022-12-08T12:00:01.772Z,302.211
2022-12-08T12:05:01.612Z,1527.01
2022-12-08T12:10:01.949Z,2381.746
2022-12-08T12:15:01.776Z,2361.871
2022-12-08T12:20:01.748Z,2289.239
2022-12-08T12:25:01.588Z,1972.852
2022-12-08T12:30:01.620Z,2441.804
2022-12-08T12:35:01.741Z,2348.593
2022-12-08T12:40:01.994Z,2317.299
2022-12-08T12:45:01.611Z,2348.887
2022-12-08T12:50:01.689Z,2471.581
2022-12-08T12:55:01.618Z,2477.3940000000002
2022-12-08T13:00:01.610Z,2696.3920000000003
2022-12-08T13:05:01.644Z,2071.684
2022-12-08T13:10:01.993Z,188.994
2022-12-08T13:15:01.661Z,189.741
2022-12-08T13:20:01.734Z,187.897
2022-12-08T13:25:01.673Z,186.291
2022-12-08T13:30:01.885Z,1452.117
2022-12-08T13:35:01.871Z,2342.576
2022-12-08T13:40:01.895Z,2424.527
2022-12-08T13:45:39.997Z,2049.256
2022-12-08T14:00:01.655Z,2295.523
2022-12-08T14:05:35.118Z,2335.385
2022-12-08T14:10:01.729Z,2363.332
2022-12-08T14:15:03.977Z,2382.551
2022-12-08T14:20:01.671Z,2424.622
2022-12-08T14:25:01.839Z,2504.213
2022-12-08T14:30:01.704Z,2490.264
2022-12-08T14:35:01.964Z,2586.1820000000002
2022-12-08T14:40:02.035Z,1999.124
2022-12-08T14:45:01.711Z,2860.35
2022-12-08T14:50:01.796Z,914.282
2022-12-08T14:55:01.717Z,189.22400000000002
2022-12-08T15:00:02.006Z,1119.6000000000001
2022-12-08T15:05:01.989Z,2268.314
2022-12-08T15:10:01.903Z,2375.29
2022-12-08T15:15:01.784Z,2426.326
2022-12-08T15:20:01.839Z,2438.16
2022-12-08T15:25:01.755Z,2416.122
2022-12-08T15:30:02.036Z,2549.259
2022-12-08T15:35:02.000Z,2600.029
2022-12-08T15:40:01.795Z,2702.68
2022-12-08T15:45:01.777Z,2191.07
2022-12-08T15:50:01.800Z,2695.996
2022-12-08T15:55:01.760Z,2598.596
2022-12-08T16:00:02.006Z,2689.228
2022-12-08T16:10:02.094Z,2675.709
2022-12-08T16:15:48.357Z,2554.542
2022-12-08T16:20:01.823Z,2570.632
2022-12-08T16:25:17.572Z,2922.524
2022-12-08T16:30:01.826Z,1117.663
2022-12-08T16:35:02.228Z,471.082
2022-12-08T16:40:01.825Z,456.665
2022-12-08T16:45:01.815Z,1856.107
2022-12-08T16:50:01.845Z,4464.997
2022-12-08T16:55:01.807Z,3532.655
2022-12-08T17:00:01.916Z,3564.556
2022-12-08T17:05:01.995Z,3033.087
2022-12-08T17:10:02.290Z,932.623
2022-12-08T17:15:01.984Z,2258.5280000000002
2022-12-08T17:20:01.902Z,3114.8360000000002
2022-12-08T17:25:01.871Z,2683.705
2022-12-08T17:30:01.865Z,2463.8160000000003
2022-12-08T17:35:01.913Z,2551.014
2022-12-08T17:40:01.959Z,2561.433
2022-12-08T17:45:02.033Z,2542.169
2022-12-08T17:50:02.285Z,2577.864
2022-12-08T17:55:01.957Z,2066.363
2022-12-08T18:00:01.855Z,2564.763
2022-12-08T18:05:01.886Z,2431.154
2022-12-08T18:10:01.884Z,2429.352
2022-12-08T18:15:01.963Z,3152.207
2022-12-08T18:20:02.090Z,4214.3730000000005
2022-12-08T18:25:01.909Z,2836.806
2022-12-08T18:30:02.057Z,2548.947
2022-12-08T18:35:02.017Z,2462.518
2022-12-08T18:40:02.241Z,2440.545
2022-12-08T18:45:01.925Z,2462.7110000000002
2022-12-08T18:50:01.991Z,2598.6530000000002
2022-12-08T18:55:06.628Z,2210.906
2022-12-08T19:00:02.018Z,2548.1910000000003
2022-12-08T19:05:01.926Z,2519.187
2022-12-08T19:10:01.975Z,2664.5370000000003
2022-12-08T19:15:02.057Z,2713.4230000000002
2022-12-08T19:20:01.997Z,3627.55
2022-12-08T19:25:02.068Z,2518.373
2022-12-08T19:30:02.093Z,2510.795
2022-12-08T19:35:01.983Z,2439.849
2022-12-08T19:40:02.041Z,2353
2022-12-08T19:45:01.950Z,2226.7110000000002
2022-12-08T19:50:01.984Z,2292.578
2022-12-08T19:55:02.019Z,2523.842
2022-12-08T20:00:02.183Z,2449.765
2022-12-08T20:05:01.960Z,2441.919
2022-12-08T20:10:02.008Z,2382.319
2022-12-08T20:15:02.035Z,3047.88
2022-12-08T20:20:06.774Z,4494.844
2022-12-08T20:25:02.110Z,4483.078
2022-12-08T20:30:02.020Z,4449.724
2022-12-08T20:35:02.224Z,2966.034
2022-12-08T20:40:02.049Z,532.871
2022-12-08T20:45:01.985Z,2640.158
2022-12-08T20:50:02.257Z,2662.939
2022-12-08T20:55:02.114Z,2519.958
2022-12-08T21:00:02.168Z,2452.857
2022-12-08T21:05:02.263Z,2542.79
2022-12-08T21:10:02.420Z,2315.201
2022-12-08T21:15:02.335Z,2178.138
2022-12-08T21:20:02.136Z,2259.435
2022-12-08T21:25:02.052Z,2302.39
2022-12-08T21:30:02.205Z,2401.713
2022-12-08T21:35:02.298Z,2487.594
2022-12-08T21:40:02.236Z,1992.166
2022-12-08T21:45:02.291Z,2786.386
2022-12-08T21:50:02.272Z,2596.646
2022-12-08T21:55:02.091Z,2672.821
2022-12-08T22:00:02.146Z,2553.201
2022-12-08T22:05:02.175Z,2226.08
2022-12-08T22:10:02.379Z,6293.752
2022-12-08T22:15:02.446Z,6913.124
2022-12-08T22:20:02.407Z,7124.872
2022-12-08T22:25:02.346Z,7093.6320000000005
2022-12-08T22:30:02.189Z,6997.92
2022-12-08T22:35:02.115Z,6421.274
2022-12-08T22:40:02.166Z,6936.653
2022-12-08T22:45:02.345Z,6785.308
2022-12-08T22:50:02.501Z,6817.933
2022-12-08T22:55:02.342Z,6816.747
2022-12-08T23:00:02.183Z,6831.693
2022-12-08T23:05:02.218Z,6940.4130000000005
2022-12-08T23:10:02.142Z,2882.933
2022-12-08T23:15:02.178Z,2341.338
2022-12-08T23:20:02.316Z,2250.7490000000003
2022-12-08T23:25:02.464Z,2440.567
2022-12-08T23:30:02.257Z,1878.443
2022-12-08T23:35:02.211Z,2367.172
2022-12-08T23:40:02.463Z,2274.356
2022-12-08T23:45:02.361Z,2285.827
2022-12-08T23:50:02.600Z,2391.199
2022-12-08T23:55:02.215Z,2424.386
